createdAt,value
2019-05-06T00:00:53.381Z,93.19
2019-05-06T00:03:07.941Z,93.99
2019-05-06T00:05:34.253Z,93.88
2019-05-06T00:08:00.584Z,94.06
2019-05-06T00:10:26.910Z,93.71
2019-05-06T00:12:53.619Z,93.77
2019-05-06T00:15:19.545Z,93.84
2019-05-06T00:17:45.859Z,93.85
2019-05-06T00:20:14.595Z,93.93
2019-05-06T00:22:38.514Z,94.05
2019-05-06T00:25:05.377Z,94.29
2019-05-06T00:27:31.145Z,93.99
2019-05-06T00:29:57.482Z,93.07
2019-05-06T00:32:24.282Z,92.63
2019-05-06T00:34:50.137Z,92.51
2019-05-06T00:37:16.440Z,92.39
2019-05-06T00:39:44.438Z,92.25
2019-05-06T00:42:09.082Z,92.12
2019-05-06T00:44:35.389Z,92.33
2019-05-06T00:47:04.188Z,93.02
2019-05-06T00:49:28.029Z,93.66
2019-05-06T00:51:55.057Z,93.84
2019-05-06T00:54:20.679Z,94.01
2019-05-06T00:56:46.989Z,93.90
2019-05-06T00:59:14.355Z,94.01
2019-05-06T01:01:39.633Z,94.50
2019-05-06T01:04:05.959Z,94.36
2019-05-06T01:06:34.451Z,94.38
2019-05-06T01:08:58.593Z,94.47
2019-05-06T01:11:24.927Z,95.20
2019-05-06T01:13:51.243Z,96.03
2019-05-06T01:16:17.550Z,96.18
2019-05-06T01:18:43.882Z,95.47
2019-05-06T01:21:10.186Z,95.53
2019-05-06T01:23:36.517Z,95.53
2019-05-06T01:26:04.192Z,95.77
2019-05-06T01:28:29.152Z,95.98
2019-05-06T01:30:55.466Z,96.32
2019-05-06T01:33:23.740Z,96.77
2019-05-06T01:35:48.148Z,97.22
2019-05-06T01:38:14.698Z,97.67
2019-05-06T01:40:40.784Z,97.98
2019-05-06T01:43:07.099Z,97.85
2019-05-06T01:45:34.858Z,97.85
2019-05-06T01:47:59.739Z,98.43
2019-05-06T01:50:26.104Z,99.01
2019-05-06T01:52:54.023Z,99.88
2019-05-06T01:55:18.723Z,100.00
2019-05-06T01:57:45.058Z,100.00
2019-05-06T02:00:11.357Z,100.00
2019-05-06T02:02:37.693Z,100.00
2019-05-06T02:05:04.783Z,100.00
2019-05-06T02:07:30.338Z,100.00
2019-05-06T02:09:56.645Z,100.00
2019-05-06T02:12:24.616Z,99.59
2019-05-06T02:14:49.303Z,99.08
2019-05-06T02:17:15.611Z,98.44
2019-05-06T02:19:43.661Z,98.41
2019-05-06T02:22:08.257Z,98.33
2019-05-06T02:24:34.569Z,98.38
2019-05-06T02:27:00.904Z,98.36
2019-05-06T02:29:27.274Z,98.46
2019-05-06T02:31:56.663Z,98.65
2019-05-06T02:34:19.875Z,98.59
2019-05-06T02:36:46.187Z,98.29
2019-05-06T02:39:14.026Z,98.38
2019-05-06T02:41:38.834Z,98.33
2019-05-06T02:44:05.168Z,98.18
2019-05-06T02:46:33.754Z,98.63
2019-05-06T02:48:57.818Z,99.01
2019-05-06T02:51:24.498Z,99.26
2019-05-06T02:53:53.562Z,99.58
2019-05-06T02:56:16.871Z,99.28
2019-05-06T02:58:43.777Z,98.96
2019-05-06T03:01:09.501Z,98.72
2019-05-06T03:03:35.855Z,98.79
2019-05-06T03:06:03.930Z,99.03
2019-05-06T03:08:28.522Z,98.85
2019-05-06T03:10:54.827Z,98.49
2019-05-06T03:13:23.687Z,98.21
2019-05-06T03:15:47.479Z,97.63
2019-05-06T03:18:14.927Z,97.32
2019-05-06T03:20:40.117Z,97.42
2019-05-06T03:23:06.429Z,96.85
2019-05-06T03:25:33.252Z,96.79
2019-05-06T03:27:59.072Z,96.89
2019-05-06T03:30:25.945Z,97.12
2019-05-06T03:33:27.632Z,96.86
2019-05-06T03:35:33.408Z,96.46
2019-05-06T03:37:44.356Z,96.59
2019-05-06T03:40:13.646Z,96.56
2019-05-06T03:42:36.987Z,96.06
2019-05-06T03:45:04.242Z,96.33
2019-05-06T03:47:29.627Z,95.83
2019-05-06T03:49:55.956Z,96.30
2019-05-06T03:52:23.185Z,97.01
2019-05-06T03:54:48.595Z,97.07
2019-05-06T03:57:14.927Z,97.15
2019-05-06T03:59:43.568Z,97.34
2019-05-06T04:02:07.566Z,96.93
2019-05-06T04:04:33.878Z,96.99
2019-05-06T04:07:03.104Z,96.99
2019-05-06T04:09:26.521Z,96.35
2019-05-06T04:11:54.138Z,95.82
2019-05-06T04:14:19.193Z,95.87
2019-05-06T04:16:45.519Z,95.69
2019-05-06T04:19:13.111Z,96.24
2019-05-06T04:21:38.126Z,96.06
2019-05-06T04:24:04.515Z,95.76
2019-05-06T04:26:32.937Z,95.90
2019-05-06T04:28:57.089Z,95.68
2019-05-06T04:31:23.421Z,95.20
2019-05-06T04:34:07.317Z,94.98
2019-05-06T04:36:16.066Z,94.93
2019-05-06T04:38:43.418Z,94.98
2019-05-06T04:41:08.697Z,94.56
2019-05-06T04:43:35.023Z,93.57
2019-05-06T04:46:03.157Z,91.44
2019-05-06T04:48:27.652Z,88.96
2019-05-06T04:50:54.146Z,86.41
2019-05-06T04:53:26.505Z,86.27
2019-05-06T04:55:46.656Z,87.39
2019-05-06T04:58:13.732Z,86.84
2019-05-06T05:00:39.300Z,85.36
2019-05-06T05:03:05.611Z,80.47
2019-05-06T05:05:33.122Z,76.71
2019-05-06T05:07:58.268Z,81.51
2019-05-06T05:10:24.584Z,84.29
2019-05-06T05:12:52.559Z,85.40
2019-05-06T05:15:17.231Z,85.66
2019-05-06T05:17:43.559Z,85.53
2019-05-06T05:20:09.869Z,86.43
2019-05-06T05:22:36.208Z,87.64
2019-05-06T05:25:03.459Z,87.87
2019-05-06T05:27:28.850Z,88.67
2019-05-06T05:29:55.184Z,88.79
2019-05-06T05:32:22.453Z,89.32
2019-05-06T05:34:47.817Z,90.54
2019-05-06T05:37:14.122Z,91.52
2019-05-06T05:39:42.449Z,91.43
2019-05-06T05:42:06.768Z,91.59
2019-05-06T05:44:33.094Z,92.97
2019-05-06T05:46:59.400Z,93.25
2019-05-06T05:49:25.715Z,92.90
2019-05-06T05:51:52.088Z,93.19
2019-05-06T05:54:18.356Z,92.85
2019-05-06T05:56:44.685Z,92.71
2019-05-06T05:59:12.258Z,92.31
2019-05-06T06:01:37.331Z,91.87
2019-05-06T06:04:03.638Z,92.42
2019-05-06T06:06:29.965Z,92.22
2019-05-06T06:08:56.293Z,91.63
2019-05-06T06:11:23.025Z,91.26
2019-05-06T06:13:48.937Z,85.65
2019-05-06T06:16:15.256Z,85.74
2019-05-06T06:18:43.082Z,85.75
2019-05-06T06:21:17.659Z,86.18
2019-05-06T06:23:34.294Z,85.27
2019-05-06T06:26:03.685Z,84.08
2019-05-06T06:28:26.947Z,84.01
2019-05-06T06:30:53.259Z,84.31
2019-05-06T06:33:22.163Z,83.48
2019-05-06T06:35:45.899Z,82.72
2019-05-06T06:38:12.353Z,82.19
2019-05-06T06:40:38.542Z,80.80
2019-05-06T06:43:04.872Z,78.01
2019-05-06T06:45:32.568Z,75.31
2019-05-06T06:47:57.517Z,73.98
2019-05-06T06:50:23.837Z,71.27
2019-05-06T06:52:52.338Z,68.54
2019-05-06T06:55:18.517Z,62.15
2019-05-06T06:57:42.789Z,61.07
2019-05-06T07:00:09.126Z,63.78
2019-05-06T07:02:35.429Z,66.93
2019-05-06T07:05:02.373Z,70.46
2019-05-06T07:07:40.207Z,70.65
2019-05-06T07:09:54.399Z,69.07
2019-05-06T07:12:23.266Z,65.65
2019-05-06T07:14:47.108Z,63.34
2019-05-06T07:17:13.480Z,63.11
2019-05-06T07:19:42.136Z,63.19
2019-05-06T07:22:07.035Z,57.81
2019-05-06T07:24:32.548Z,54.87
2019-05-06T07:26:58.756Z,54.84
2019-05-06T07:29:26.794Z,55.93
2019-05-06T07:31:53.279Z,54.08
2019-05-06T07:34:17.786Z,52.60
2019-05-06T07:36:44.091Z,50.55
2019-05-06T07:39:14.753Z,54.17
2019-05-06T07:41:36.730Z,58.09
2019-05-06T07:44:03.082Z,57.79
2019-05-06T07:46:29.381Z,55.15
2019-05-06T07:48:55.708Z,52.27
2019-05-06T07:51:23.880Z,51.67
2019-05-06T07:53:48.361Z,50.54
2019-05-06T07:56:14.672Z,49.76
2019-05-06T07:58:43.090Z,53.99
2019-05-06T08:01:07.340Z,52.79
2019-05-06T08:03:33.636Z,52.21
2019-05-06T08:06:02.506Z,50.41
2019-05-06T08:08:26.286Z,50.79
2019-05-06T08:10:52.754Z,51.31
2019-05-06T08:13:18.920Z,53.49
2019-05-06T08:15:45.224Z,57.25
2019-05-06T08:18:12.543Z,56.67
2019-05-06T08:20:37.858Z,56.15
2019-05-06T08:23:04.192Z,58.29
2019-05-06T08:25:32.842Z,58.14
2019-05-06T08:27:56.844Z,59.02
2019-05-06T08:30:23.272Z,61.85
2019-05-06T08:32:49.476Z,67.48
2019-05-06T08:35:15.803Z,72.48
2019-05-06T08:37:42.658Z,76.17
2019-05-06T08:40:08.440Z,90.25
2019-05-06T08:42:34.746Z,99.63
2019-05-06T08:45:02.205Z,100.00
2019-05-06T08:47:27.406Z,100.00
2019-05-06T08:49:53.725Z,100.00
2019-05-06T08:52:21.704Z,100.00
2019-05-06T08:54:46.389Z,100.00
2019-05-06T08:57:12.715Z,100.00
2019-05-06T08:59:39.042Z,100.00
2019-05-06T09:02:05.380Z,100.00
2019-05-06T09:04:32.141Z,100.00
2019-05-06T09:06:58.060Z,100.00
2019-05-06T09:09:24.369Z,100.00
2019-05-06T09:11:53.229Z,100.00
2019-05-06T09:14:17.013Z,100.00
2019-05-06T09:16:44.070Z,100.00
2019-05-06T09:19:09.662Z,100.00
2019-05-06T09:21:35.997Z,100.00
2019-05-06T09:24:02.455Z,100.00
2019-05-06T09:26:28.712Z,100.00
2019-05-06T09:28:55.005Z,100.00
2019-05-06T09:31:23.027Z,100.00
2019-05-06T09:33:47.667Z,100.00
2019-05-06T09:36:13.961Z,100.00
2019-05-06T09:38:41.966Z,98.81
2019-05-06T09:41:06.596Z,98.83
2019-05-06T09:43:32.922Z,94.90
2019-05-06T09:45:59.244Z,93.60
2019-05-06T09:48:25.557Z,88.12
2019-05-06T09:50:53.796Z,91.42
2019-05-06T09:53:18.192Z,89.91
2019-05-06T09:55:44.526Z,82.91
2019-05-06T09:58:12.331Z,80.16
2019-05-06T10:00:37.167Z,81.79
2019-05-06T10:03:03.843Z,87.94
2019-05-06T10:05:29.784Z,83.73
2019-05-06T10:07:56.172Z,86.94
2019-05-06T10:10:22.484Z,80.75
2019-05-06T10:12:48.799Z,86.35
2019-05-06T10:15:15.138Z,84.65
2019-05-06T10:17:42.910Z,80.82
2019-05-06T10:20:07.974Z,75.34
2019-05-06T10:22:34.306Z,73.66
2019-05-06T10:25:03.374Z,75.33
2019-05-06T10:27:26.941Z,74.33
2019-05-06T10:29:53.248Z,75.07
2019-05-06T10:32:19.575Z,75.35
2019-05-06T10:34:45.893Z,73.82
2019-05-06T10:37:18.722Z,73.42
2019-05-06T10:39:38.531Z,70.14
2019-05-06T10:42:04.857Z,66.61
2019-05-06T10:44:32.980Z,61.76
2019-05-06T10:46:57.497Z,61.28
2019-05-06T10:49:23.835Z,61.84
2019-05-06T10:51:50.150Z,63.46
2019-05-06T10:54:16.478Z,64.87
2019-05-06T10:56:52.367Z,64.70
2019-05-06T10:59:09.192Z,66.21
2019-05-06T11:01:35.505Z,65.41
2019-05-06T11:04:02.810Z,64.73
2019-05-06T11:06:28.355Z,67.05
2019-05-06T11:08:54.662Z,66.01
2019-05-06T11:11:32.659Z,66.76
2019-05-06T11:13:47.290Z,66.27
2019-05-06T11:16:16.762Z,64.36
2019-05-06T11:18:42.378Z,63.59
2019-05-06T11:21:06.254Z,63.64
2019-05-06T11:23:33.804Z,64.07
2019-05-06T11:25:58.892Z,65.71
2019-05-06T11:28:25.229Z,67.79
2019-05-06T11:30:52.978Z,68.00
2019-05-06T11:33:17.862Z,69.45
2019-05-06T11:35:44.192Z,67.48
2019-05-06T11:38:12.156Z,70.13
2019-05-06T11:40:36.831Z,69.76
2019-05-06T11:43:03.164Z,69.89
2019-05-06T11:45:29.491Z,69.45
2019-05-06T11:47:56.219Z,68.58
2019-05-06T11:50:22.163Z,68.73
2019-05-06T11:52:48.481Z,69.11
2019-05-06T11:55:27.809Z,70.02
2019-05-06T11:57:41.657Z,70.17
2019-05-06T12:00:07.451Z,69.99
2019-05-06T12:02:33.765Z,71.69
2019-05-06T12:05:02.186Z,74.55
2019-05-06T12:07:26.401Z,76.42
2019-05-06T12:09:54.089Z,76.83
2019-05-06T12:12:19.055Z,77.70
2019-05-06T12:14:45.394Z,78.51
2019-05-06T12:17:12.777Z,79.63
2019-05-06T12:19:38.074Z,79.62
2019-05-06T12:22:04.401Z,80.26
2019-05-06T12:24:30.710Z,80.83
2019-05-06T12:26:57.040Z,79.75
2019-05-06T12:29:23.345Z,79.92
2019-05-06T12:31:49.750Z,79.50
2019-05-06T12:34:16.052Z,78.30
2019-05-06T12:36:42.858Z,78.42
2019-05-06T12:39:08.761Z,78.36
2019-05-06T12:41:35.057Z,78.25
2019-05-06T12:44:03.127Z,78.94
2019-05-06T12:46:27.701Z,79.64
2019-05-06T12:48:54.008Z,80.42
2019-05-06T12:51:22.572Z,80.02
2019-05-06T12:53:46.646Z,79.54
2019-05-06T12:56:13.006Z,79.63
2019-05-06T12:58:39.341Z,81.01
2019-05-06T13:01:05.648Z,80.50
2019-05-06T13:03:34.690Z,82.71
2019-05-06T13:05:58.305Z,82.30
2019-05-06T13:08:28.732Z,82.78
2019-05-06T13:10:52.568Z,81.53
2019-05-06T13:13:17.533Z,80.95
2019-05-06T13:15:43.851Z,79.75
2019-05-06T13:18:10.154Z,79.86
2019-05-06T13:20:36.485Z,79.87
2019-05-06T13:23:09.517Z,79.49
2019-05-06T13:25:29.124Z,79.21
2019-05-06T13:27:55.447Z,78.76
2019-05-06T13:30:22.744Z,78.76
2019-05-06T13:32:48.258Z,78.01
2019-05-06T13:35:14.560Z,78.47
2019-05-06T13:37:42.325Z,78.23
2019-05-06T13:40:07.242Z,77.51
2019-05-06T13:42:33.503Z,77.49
2019-05-06T13:44:59.879Z,76.13
2019-05-06T13:47:26.377Z,75.79
2019-05-06T13:49:52.710Z,75.00
2019-05-06T13:52:19.021Z,74.82
2019-05-06T13:54:45.366Z,73.95
2019-05-06T13:57:12.541Z,74.15
2019-05-06T13:59:38.065Z,74.09
2019-05-06T14:02:06.778Z,74.22
2019-05-06T14:04:32.652Z,74.21
2019-05-06T14:06:57.136Z,73.51
2019-05-06T14:09:31.733Z,73.47
2019-05-06T14:11:49.845Z,72.28
2019-05-06T14:14:16.271Z,71.71
2019-05-06T14:16:42.849Z,71.77
2019-05-06T14:19:08.911Z,72.54
2019-05-06T14:21:35.246Z,71.65
2019-05-06T14:24:02.485Z,71.91
2019-05-06T14:26:27.903Z,70.93
2019-05-06T14:28:54.215Z,71.17
2019-05-06T14:31:25.355Z,68.04
2019-05-06T14:33:46.860Z,66.76
2019-05-06T14:36:13.174Z,66.40
2019-05-06T14:38:39.496Z,66.82
2019-05-06T14:41:08.001Z,67.43
2019-05-06T14:43:32.454Z,67.51
2019-05-06T14:45:58.448Z,67.96
2019-05-06T14:48:24.775Z,67.15
2019-05-06T14:50:56.887Z,67.91
2019-05-06T14:53:17.425Z,67.38
2019-05-06T14:55:43.823Z,66.48
2019-05-06T14:58:12.061Z,67.09
2019-05-06T15:00:36.428Z,67.71
2019-05-06T15:03:02.736Z,67.70
2019-05-06T15:05:29.092Z,68.23
2019-05-06T15:07:55.401Z,68.86
2019-05-06T15:10:24.011Z,68.85
2019-05-06T15:12:48.081Z,70.21
2019-05-06T15:15:14.460Z,69.05
2019-05-06T15:17:42.463Z,68.19
2019-05-06T15:20:07.072Z,68.64
2019-05-06T15:22:33.448Z,69.08
2019-05-06T15:25:02.233Z,69.62
2019-05-06T15:27:26.081Z,71.00
2019-05-06T15:29:53.135Z,72.39
2019-05-06T15:32:18.829Z,72.29
2019-05-06T15:34:45.139Z,73.37
2019-05-06T15:37:12.973Z,73.16
2019-05-06T15:39:37.783Z,74.59
2019-05-06T15:42:04.104Z,76.18
2019-05-06T15:44:33.017Z,78.48
2019-05-06T15:46:56.773Z,80.99
2019-05-06T15:49:23.082Z,83.76
2019-05-06T15:51:49.413Z,85.30
2019-05-06T15:54:15.738Z,92.18
2019-05-06T15:56:42.381Z,94.53
2019-05-06T15:59:08.389Z,97.21
2019-05-06T16:01:34.710Z,100.00
2019-05-06T16:04:01.027Z,100.00
2019-05-06T16:06:27.337Z,100.00
2019-05-06T16:08:53.665Z,100.00
2019-05-06T16:11:22.172Z,100.00
2019-05-06T16:13:46.302Z,100.00
2019-05-06T16:16:12.633Z,100.00
2019-05-06T16:18:38.941Z,100.00
2019-05-06T16:21:05.267Z,100.00
2019-05-06T16:23:32.733Z,100.00
2019-05-06T16:25:57.940Z,100.00
2019-05-06T16:28:24.280Z,100.00
2019-05-06T16:30:53.182Z,100.00
2019-05-06T16:33:18.837Z,100.00
2019-05-06T16:35:43.643Z,100.00
2019-05-06T16:38:09.923Z,100.00
2019-05-06T16:40:36.224Z,100.00
2019-05-06T16:43:02.799Z,100.00
2019-05-06T16:45:29.104Z,100.00
2019-05-06T16:47:55.416Z,100.00
2019-05-06T16:50:22.569Z,100.00
2019-05-06T16:52:48.314Z,100.00
2019-05-06T16:55:16.369Z,100.00
2019-05-06T16:57:42.867Z,100.00
2019-05-06T17:00:09.036Z,100.00
2019-05-06T17:02:35.373Z,100.00
2019-05-06T17:05:03.471Z,100.00
2019-05-06T17:07:28.030Z,100.00
2019-05-06T17:09:54.366Z,100.00
2019-05-06T17:12:22.399Z,100.00
2019-05-06T17:14:47.013Z,100.00
2019-05-06T17:17:13.323Z,100.00
2019-05-06T17:19:39.663Z,100.00
2019-05-06T17:22:05.975Z,100.00
2019-05-06T17:24:33.120Z,100.00
2019-05-06T17:26:58.611Z,100.00
2019-05-06T17:29:24.993Z,100.00
2019-05-06T17:31:51.319Z,100.00
2019-05-06T17:34:17.626Z,100.00
2019-05-06T17:36:44.031Z,100.00
2019-05-06T17:39:10.343Z,100.00
2019-05-06T17:41:45.876Z,100.00
2019-05-06T17:44:03.633Z,100.00
2019-05-06T17:46:29.969Z,100.00
2019-05-06T17:48:56.273Z,100.00
2019-05-06T17:51:22.607Z,100.00
2019-05-06T17:53:48.937Z,100.00
2019-05-06T17:56:17.740Z,100.00
2019-05-06T17:58:44.083Z,100.00
2019-05-06T18:01:12.464Z,100.00
2019-05-06T18:03:37.342Z,100.00
2019-05-06T18:06:07.130Z,100.00
2019-05-06T18:08:30.022Z,100.00
2019-05-06T18:10:56.347Z,100.00
2019-05-06T18:13:22.695Z,100.00
2019-05-06T18:15:49.000Z,100.00
2019-05-06T18:18:15.335Z,100.00
2019-05-06T18:20:42.712Z,100.00
2019-05-06T18:23:07.979Z,100.00
2019-05-06T18:25:34.292Z,100.00
2019-05-06T18:28:00.636Z,100.00
2019-05-06T18:30:33.479Z,100.00
2019-05-06T18:32:53.273Z,100.00
2019-05-06T18:35:19.611Z,100.00
2019-05-06T18:37:45.920Z,100.00
2019-05-06T18:40:12.262Z,100.00
2019-05-06T18:42:38.583Z,100.00
2019-05-06T18:45:04.890Z,100.00
2019-05-06T18:47:33.017Z,100.00
2019-05-06T18:49:57.566Z,100.00
2019-05-06T18:52:23.871Z,100.00
2019-05-06T18:54:52.283Z,100.00
2019-05-06T18:57:16.513Z,100.00
2019-05-06T18:59:42.868Z,100.00
2019-05-06T19:02:09.168Z,100.00
2019-05-06T19:04:35.501Z,100.00
2019-05-06T19:07:10.627Z,100.00
2019-05-06T19:09:28.123Z,100.00
2019-05-06T19:11:54.692Z,100.00
2019-05-06T19:14:21.889Z,100.00
2019-05-06T19:16:51.809Z,100.00
2019-05-06T19:19:13.433Z,100.00
2019-05-06T19:21:39.748Z,100.00
2019-05-06T19:24:06.078Z,100.00
2019-05-06T19:26:32.811Z,100.00
2019-05-06T19:28:58.718Z,100.00
2019-05-06T19:31:25.049Z,100.00
2019-05-06T19:33:52.641Z,100.00
2019-05-06T19:36:17.724Z,100.00
2019-05-06T19:38:44.030Z,100.00
2019-05-06T19:41:12.676Z,100.00
2019-05-06T19:43:36.802Z,100.00
2019-05-06T19:46:05.929Z,100.00
2019-05-06T19:48:32.792Z,100.00
2019-05-06T19:50:58.572Z,100.00
2019-05-06T19:53:24.903Z,100.00
2019-05-06T19:55:53.012Z,100.00
2019-05-06T19:58:17.547Z,100.00
2019-05-06T20:00:43.852Z,100.00
2019-05-06T20:03:12.173Z,100.00
2019-05-06T20:05:36.488Z,100.00
2019-05-06T20:08:02.991Z,100.00
2019-05-06T20:10:32.588Z,100.00
2019-05-06T20:13:01.976Z,100.00
2019-05-06T20:15:21.890Z,100.00
2019-05-06T20:17:48.335Z,100.00
2019-05-06T20:20:15.034Z,100.00
2019-05-06T20:22:42.264Z,100.00
2019-05-06T20:25:07.671Z,100.00
2019-05-06T20:27:33.996Z,100.00
2019-05-06T20:30:00.309Z,100.00
2019-05-06T20:32:26.641Z,100.00
2019-05-06T20:34:52.946Z,100.00
2019-05-06T20:37:19.257Z,100.00
2019-05-06T20:39:45.591Z,100.00
2019-05-06T20:42:12.765Z,100.00
2019-05-06T20:44:38.230Z,100.00
2019-05-06T20:47:04.555Z,100.00
2019-05-06T20:49:33.131Z,100.00
2019-05-06T20:51:57.188Z,100.00
2019-05-06T20:54:23.776Z,100.00
2019-05-06T20:56:49.824Z,100.00
2019-05-06T20:59:16.161Z,100.00
2019-05-06T21:01:42.637Z,100.00
2019-05-06T21:04:08.810Z,100.00
2019-05-06T21:06:35.118Z,100.00
2019-05-06T21:09:02.120Z,100.00
2019-05-06T21:11:29.269Z,100.00
2019-05-06T21:13:54.098Z,98.98
2019-05-06T21:16:22.450Z,98.54
2019-05-06T21:18:46.832Z,95.94
2019-05-06T21:21:13.638Z,96.88
2019-05-06T21:23:39.488Z,95.99
2019-05-06T21:26:05.807Z,96.51
2019-05-06T21:28:32.120Z,97.06
2019-05-06T21:30:58.449Z,96.79
2019-05-06T21:33:24.752Z,96.63
2019-05-06T21:35:52.298Z,96.86
2019-05-06T21:38:17.494Z,97.11
2019-05-06T21:40:43.792Z,96.16
2019-05-06T21:43:10.100Z,95.12
2019-05-06T21:45:36.412Z,95.45
2019-05-06T21:48:02.961Z,95.06
2019-05-06T21:50:29.257Z,96.30
2019-05-06T21:52:55.583Z,94.34
2019-05-06T21:55:22.743Z,94.79
2019-05-06T21:57:48.209Z,94.10
2019-05-06T22:00:16.931Z,94.54
2019-05-06T22:02:42.231Z,94.22
2019-05-06T22:05:07.232Z,94.80
2019-05-06T22:07:35.850Z,94.28
2019-05-06T22:09:59.865Z,94.58
2019-05-06T22:12:26.202Z,94.54
2019-05-06T22:14:53.010Z,93.25
2019-05-06T22:17:18.826Z,92.87
2019-05-06T22:19:45.132Z,93.53
2019-05-06T22:22:12.437Z,93.29
2019-05-06T22:24:37.779Z,94.25
2019-05-06T22:27:04.127Z,93.92
2019-05-06T22:29:32.640Z,94.14
2019-05-06T22:31:56.764Z,93.66
2019-05-06T22:34:23.092Z,93.50
2019-05-06T22:36:49.396Z,92.12
2019-05-06T22:39:15.749Z,92.18
2019-05-06T22:41:43.926Z,92.28
2019-05-06T22:44:13.573Z,92.30
2019-05-06T22:46:34.741Z,91.10
2019-05-06T22:49:02.455Z,90.67
2019-05-06T22:51:27.374Z,91.19
2019-05-06T22:53:53.674Z,91.91
2019-05-06T22:56:20.020Z,91.74
2019-05-06T22:58:46.340Z,91.48
2019-05-06T23:01:12.665Z,91.41
2019-05-06T23:03:39.034Z,91.82
2019-05-06T23:06:05.336Z,91.32
2019-05-06T23:08:32.507Z,91.30
2019-05-06T23:10:57.960Z,90.83
2019-05-06T23:13:24.268Z,91.48
2019-05-06T23:15:52.253Z,90.61
2019-05-06T23:18:16.891Z,90.64
2019-05-06T23:20:43.267Z,90.28
2019-05-06T23:23:09.587Z,90.53
2019-05-06T23:25:35.913Z,89.62
2019-05-06T23:28:02.854Z,89.16
2019-05-06T23:30:28.544Z,90.01
2019-05-06T23:32:54.924Z,89.51
2019-05-06T23:35:21.992Z,89.84
2019-05-06T23:37:47.555Z,90.43
2019-05-06T23:40:13.865Z,89.94
2019-05-06T23:42:41.907Z,89.51
2019-05-06T23:45:06.657Z,89.58
2019-05-06T23:47:32.924Z,89.42
2019-05-06T23:49:59.250Z,90.65
2019-05-06T23:52:25.569Z,89.84
2019-05-06T23:54:52.331Z,89.24
2019-05-06T23:57:18.215Z,88.51
2019-05-06T23:59:44.515Z,88.81
